createdAt,value
2018-06-19T00:02:01.902Z,15.40
2018-06-19T00:05:06.242Z,15.40
2018-06-19T00:08:10.615Z,15.30
2018-06-19T00:11:15.120Z,15.28
2018-06-19T00:14:19.441Z,15.24
2018-06-19T00:17:23.718Z,15.25
2018-06-19T00:20:28.224Z,15.30
2018-06-19T00:23:32.648Z,15.31
2018-06-19T00:26:37.028Z,15.35
2018-06-19T00:29:41.447Z,15.37
2018-06-19T00:32:45.877Z,15.36
2018-06-19T00:35:50.295Z,15.31
2018-06-19T00:38:54.841Z,15.32
2018-06-19T00:41:59.113Z,15.31
2018-06-19T00:45:03.442Z,15.28
2018-06-19T00:48:08.562Z,15.26
2018-06-19T00:51:12.899Z,15.20
2018-06-19T00:54:17.292Z,15.15
2018-06-19T00:57:21.720Z,15.13
2018-06-19T01:00:26.042Z,15.06
2018-06-19T01:03:30.349Z,15.03
2018-06-19T01:06:34.832Z,14.97
2018-06-19T01:09:39.184Z,14.92
2018-06-19T01:12:43.644Z,14.92
2018-06-19T01:15:47.978Z,14.90
2018-06-19T01:18:52.366Z,14.94
2018-06-19T01:21:56.690Z,15.03
2018-06-19T01:25:01.006Z,15.11
2018-06-19T01:28:05.300Z,15.10
2018-06-19T01:31:09.460Z,15.05
2018-06-19T01:34:13.844Z,14.99
2018-06-19T01:37:18.235Z,15.03
2018-06-19T01:40:22.560Z,15.05
2018-06-19T01:43:26.898Z,15.11
2018-06-19T01:46:31.046Z,15.12
2018-06-19T01:49:35.315Z,15.15
2018-06-19T01:52:39.603Z,15.17
2018-06-19T01:55:43.868Z,15.21
2018-06-19T01:58:48.216Z,15.25
2018-06-19T02:01:52.624Z,15.29
2018-06-19T02:04:57.119Z,15.34
2018-06-19T02:08:01.516Z,15.38
2018-06-19T02:11:05.892Z,15.36
2018-06-19T02:14:10.190Z,15.31
2018-06-19T02:17:14.384Z,15.29
2018-06-19T02:20:18.742Z,15.29
2018-06-19T02:23:23.957Z,15.29
2018-06-19T02:26:28.344Z,15.37
2018-06-19T02:29:32.735Z,15.42
2018-06-19T02:32:37.065Z,15.49
2018-06-19T02:35:41.364Z,15.53
2018-06-19T02:38:45.663Z,15.57
2018-06-19T02:41:50.217Z,15.55
2018-06-19T02:44:54.517Z,15.52
2018-06-19T02:47:58.816Z,15.49
2018-06-19T02:51:03.193Z,15.54
2018-06-19T02:54:07.453Z,15.62
2018-06-19T02:57:11.742Z,15.69
2018-06-19T03:00:16.033Z,15.78
2018-06-19T03:03:20.328Z,15.84
2018-06-19T03:06:24.646Z,15.86
2018-06-19T03:09:28.998Z,15.89
2018-06-19T03:12:33.264Z,15.91
2018-06-19T03:15:37.633Z,15.95
2018-06-19T03:18:41.940Z,15.96
2018-06-19T03:21:46.239Z,15.97
2018-06-19T03:24:50.521Z,16.02
2018-06-19T03:27:54.893Z,16.02
2018-06-19T03:30:58.997Z,16.06
2018-06-19T03:34:03.318Z,16.09
2018-06-19T03:37:07.620Z,16.13
2018-06-19T03:40:11.948Z,16.14
2018-06-19T03:43:16.302Z,16.17
2018-06-19T03:46:20.628Z,16.16
2018-06-19T03:49:24.920Z,16.16
2018-06-19T03:52:29.959Z,16.17
2018-06-19T03:55:34.273Z,16.19
2018-06-19T03:58:38.580Z,16.19
2018-06-19T04:01:42.913Z,16.21
2018-06-19T04:04:47.263Z,16.24
2018-06-19T04:07:51.719Z,16.27
2018-06-19T04:10:56.099Z,16.32
2018-06-19T04:14:00.397Z,16.32
2018-06-19T04:17:04.628Z,16.34
2018-06-19T04:20:08.926Z,16.38
2018-06-19T04:23:13.250Z,16.38
2018-06-19T04:26:17.615Z,16.42
2018-06-19T04:29:21.887Z,16.46
2018-06-19T04:32:26.257Z,16.52
2018-06-19T04:35:30.529Z,16.57
2018-06-19T04:38:34.821Z,16.62
2018-06-19T04:41:39.081Z,16.60
2018-06-19T04:44:43.455Z,16.54
2018-06-19T04:47:47.827Z,16.54
2018-06-19T04:50:52.169Z,16.55
2018-06-19T04:53:56.445Z,16.51
2018-06-19T04:57:00.799Z,16.46
2018-06-19T05:00:05.532Z,16.47
2018-06-19T05:03:09.821Z,16.47
2018-06-19T05:06:14.145Z,16.53
2018-06-19T05:09:18.506Z,16.59
2018-06-19T05:12:22.776Z,16.65
2018-06-19T05:15:27.373Z,16.66
2018-06-19T05:18:31.727Z,16.76
2018-06-19T05:21:36.091Z,16.75
2018-06-19T05:24:40.513Z,16.71
2018-06-19T05:27:44.824Z,16.70
2018-06-19T05:30:49.147Z,16.70
2018-06-19T05:33:53.441Z,16.75
2018-06-19T05:36:57.758Z,16.76
2018-06-19T05:40:02.122Z,16.77
2018-06-19T05:43:06.514Z,16.79
2018-06-19T05:46:10.914Z,16.84
2018-06-19T05:49:15.259Z,16.86
2018-06-19T05:52:19.550Z,16.89
2018-06-19T05:55:23.913Z,16.94
2018-06-19T05:58:28.202Z,16.97
2018-06-19T06:01:32.502Z,17.09
2018-06-19T06:04:36.785Z,17.20
2018-06-19T06:07:41.079Z,17.26
2018-06-19T06:10:45.418Z,17.34
2018-06-19T06:13:49.552Z,17.36
2018-06-19T06:16:53.834Z,17.42
2018-06-19T06:19:58.165Z,17.41
2018-06-19T06:23:02.450Z,17.45
2018-06-19T06:26:06.913Z,17.49
2018-06-19T06:29:11.277Z,17.49
2018-06-19T06:32:15.644Z,17.55
2018-06-19T06:35:20.104Z,17.62
2018-06-19T06:38:24.381Z,17.65
2018-06-19T06:41:28.759Z,17.66
2018-06-19T06:44:33.013Z,17.62
2018-06-19T06:47:37.497Z,17.73
2018-06-19T06:50:41.758Z,17.86
2018-06-19T06:53:46.139Z,17.85
2018-06-19T06:56:50.452Z,17.92
2018-06-19T06:59:54.791Z,18.01
2018-06-19T07:02:59.203Z,17.91
2018-06-19T07:06:03.624Z,17.91
2018-06-19T07:09:10.965Z,17.93
2018-06-19T07:12:15.441Z,18.00
2018-06-19T07:15:19.691Z,17.96
2018-06-19T07:18:24.084Z,18.04
2018-06-19T07:21:28.646Z,17.95
2018-06-19T07:24:33.055Z,17.85
2018-06-19T07:27:37.462Z,17.82
2018-06-19T07:30:41.820Z,17.89
2018-06-19T07:33:46.078Z,17.87
2018-06-19T07:36:50.442Z,17.83
2018-06-19T07:39:54.745Z,17.85
2018-06-19T07:43:03.140Z,17.80
2018-06-19T07:46:07.459Z,17.84
2018-06-19T07:49:11.809Z,17.60
2018-06-19T07:52:16.094Z,17.54
2018-06-19T07:55:20.454Z,17.46
2018-06-19T07:58:24.756Z,17.48
2018-06-19T08:01:29.098Z,17.42
2018-06-19T08:04:33.489Z,17.24
2018-06-19T08:07:37.820Z,17.26
2018-06-19T08:10:42.146Z,17.33
2018-06-19T08:13:46.605Z,17.30
2018-06-19T08:16:50.980Z,17.40
2018-06-19T08:19:55.343Z,17.10
2018-06-19T08:22:59.617Z,17.02
2018-06-19T08:26:03.982Z,16.97
2018-06-19T08:29:08.376Z,16.95
2018-06-19T08:32:12.669Z,17.02
2018-06-19T08:35:17.012Z,17.22
2018-06-19T08:38:21.364Z,17.33
2018-06-19T08:41:25.644Z,17.77
2018-06-19T08:44:30.005Z,18.08
2018-06-19T08:47:34.265Z,18.30
2018-06-19T08:50:38.645Z,18.48
2018-06-19T08:53:42.949Z,18.74
2018-06-19T08:56:47.324Z,18.86
2018-06-19T08:59:51.609Z,19.06
2018-06-19T09:02:55.929Z,18.93
2018-06-19T09:06:00.225Z,18.54
2018-06-19T09:09:06.558Z,18.47
2018-06-19T09:12:10.841Z,18.40
2018-06-19T09:15:15.195Z,18.45
2018-06-19T09:18:19.545Z,18.84
2018-06-19T09:21:23.892Z,19.11
2018-06-19T09:24:28.239Z,19.26
2018-06-19T09:27:32.560Z,18.79
2018-06-19T09:30:36.852Z,18.64
2018-06-19T09:33:41.194Z,18.72
2018-06-19T09:36:45.525Z,18.59
2018-06-19T09:39:49.927Z,18.69
2018-06-19T09:42:54.233Z,18.56
2018-06-19T09:45:58.558Z,18.38
2018-06-19T09:49:02.877Z,18.43
2018-06-19T09:52:07.518Z,18.26
2018-06-19T09:55:11.855Z,18.42
2018-06-19T09:58:16.181Z,18.70
2018-06-19T10:01:20.551Z,18.68
2018-06-19T10:04:24.874Z,18.77
2018-06-19T10:07:29.217Z,18.98
2018-06-19T10:10:33.582Z,19.28
2018-06-19T10:13:37.869Z,19.54
2018-06-19T10:16:42.246Z,19.37
2018-06-19T10:19:46.674Z,19.07
2018-06-19T10:22:51.233Z,19.05
2018-06-19T10:25:55.523Z,19.21
2018-06-19T10:29:00.263Z,19.13
2018-06-19T10:32:04.628Z,19.40
2018-06-19T10:35:08.936Z,19.24
2018-06-19T10:38:13.256Z,19.42
2018-06-19T10:41:17.592Z,19.41
2018-06-19T10:44:21.896Z,19.62
2018-06-19T10:47:26.272Z,19.87
2018-06-19T10:50:30.568Z,19.84
2018-06-19T10:53:34.904Z,20.03
2018-06-19T10:56:39.309Z,19.74
2018-06-19T10:59:43.822Z,19.34
2018-06-19T11:02:48.388Z,19.44
2018-06-19T11:05:52.784Z,19.55
2018-06-19T11:08:57.040Z,19.88
2018-06-19T11:12:01.401Z,19.80
2018-06-19T11:15:06.051Z,19.65
2018-06-19T11:18:10.478Z,19.80
2018-06-19T11:21:14.797Z,19.68
2018-06-19T11:24:19.116Z,19.79
2018-06-19T11:27:23.414Z,19.81
2018-06-19T11:30:27.720Z,20.05
2018-06-19T11:33:32.040Z,19.99
2018-06-19T11:36:36.506Z,20.09
2018-06-19T11:39:40.881Z,20.14
2018-06-19T11:42:45.503Z,20.11
2018-06-19T11:45:49.849Z,19.93
2018-06-19T11:48:54.182Z,19.93
2018-06-19T11:51:58.540Z,19.89
2018-06-19T11:55:03.003Z,19.81
2018-06-19T11:58:07.338Z,19.85
2018-06-19T12:01:11.715Z,19.71
2018-06-19T12:04:16.130Z,19.84
2018-06-19T12:07:20.421Z,19.91
2018-06-19T12:10:24.718Z,20.23
2018-06-19T12:13:29.154Z,20.46
2018-06-19T12:16:33.771Z,20.27
2018-06-19T12:19:38.129Z,20.12
2018-06-19T12:22:42.487Z,20.07
2018-06-19T12:25:46.814Z,20.01
2018-06-19T12:28:51.191Z,20.04
2018-06-19T12:31:55.660Z,19.95
2018-06-19T12:34:59.938Z,19.40
2018-06-19T12:38:04.307Z,19.41
2018-06-19T12:41:08.632Z,19.88
2018-06-19T12:44:13.194Z,20.24
2018-06-19T12:47:17.591Z,20.28
2018-06-19T12:50:41.528Z,20.31
2018-06-19T12:56:03.876Z,20.18
2018-06-19T12:59:08.231Z,20.03
2018-06-19T13:02:12.555Z,20.02
2018-06-19T13:05:34.001Z,19.93
2018-06-19T13:08:38.341Z,19.87
2018-06-19T13:11:42.739Z,19.96
2018-06-19T13:14:47.064Z,19.98
2018-06-19T13:19:12.277Z,19.73
2018-06-19T13:22:16.711Z,19.45
2018-06-19T13:25:21.159Z,19.78
2018-06-19T13:29:52.139Z,19.87
2018-06-19T13:32:56.437Z,19.88
2018-06-19T13:36:00.815Z,19.85
2018-06-19T13:39:06.335Z,19.85
2018-06-19T13:42:27.712Z,19.92
2018-06-19T13:45:32.115Z,20.09
2018-06-19T13:48:36.539Z,19.98
2018-06-19T13:51:40.803Z,20.12
2018-06-19T13:54:47.623Z,20.20
2018-06-19T13:58:21.377Z,19.74
2018-06-19T14:01:25.666Z,19.84
2018-06-19T14:04:30.167Z,19.69
2018-06-19T14:07:40.029Z,19.58
2018-06-19T14:11:01.626Z,19.58
2018-06-19T14:14:05.965Z,19.61
2018-06-19T14:17:10.244Z,19.59
2018-06-19T14:20:14.700Z,19.82
2018-06-19T14:23:19.001Z,20.16
2018-06-19T14:26:23.448Z,19.85
2018-06-19T14:29:27.714Z,20.04
2018-06-19T14:32:32.058Z,19.84
2018-06-19T14:35:36.386Z,19.91
2018-06-19T14:38:40.830Z,20.03
2018-06-19T14:41:45.140Z,19.87
2018-06-19T14:44:49.598Z,20.10
2018-06-19T14:47:53.857Z,19.84
2018-06-19T14:50:58.201Z,19.66
2018-06-19T14:54:02.511Z,19.90
2018-06-19T14:57:06.760Z,20.13
2018-06-19T15:00:11.698Z,19.94
2018-06-19T15:03:16.022Z,19.89
2018-06-19T15:06:20.293Z,19.75
2018-06-19T15:09:24.412Z,20.02
2018-06-19T15:12:28.784Z,20.09
2018-06-19T15:15:33.200Z,20.17
2018-06-19T15:18:37.558Z,20.80
2018-06-19T15:21:41.913Z,21.09
2018-06-19T15:24:46.202Z,21.18
2018-06-19T15:27:51.774Z,21.76
2018-06-19T15:30:56.112Z,21.56
2018-06-19T15:34:00.557Z,21.33
2018-06-19T15:37:04.851Z,21.65
2018-06-19T15:40:09.273Z,21.71
2018-06-19T15:43:13.538Z,20.77
2018-06-19T15:46:17.949Z,20.86
2018-06-19T15:49:22.323Z,21.54
2018-06-19T15:52:26.734Z,21.57
2018-06-19T15:55:31.180Z,21.66
2018-06-19T15:58:35.498Z,21.52
2018-06-19T16:01:39.913Z,21.34
2018-06-19T16:04:44.240Z,21.78
2018-06-19T16:07:53.920Z,21.86
2018-06-19T16:10:58.210Z,22.21
2018-06-19T16:14:02.505Z,22.64
2018-06-19T16:17:06.910Z,22.65
2018-06-19T16:20:11.275Z,22.43
2018-06-19T16:23:15.697Z,22.36
2018-06-19T16:26:19.981Z,22.17
2018-06-19T16:29:24.338Z,22.54
2018-06-19T16:32:28.599Z,22.13
2018-06-19T16:35:32.999Z,22.19
2018-06-19T16:38:37.369Z,22.33
2018-06-19T16:41:41.834Z,22.03
2018-06-19T16:44:46.127Z,21.96
2018-06-19T16:47:50.555Z,22.01
2018-06-19T16:50:54.872Z,21.95
2018-06-19T16:53:59.295Z,21.75
2018-06-19T16:57:03.632Z,21.59
2018-06-19T17:00:08.150Z,21.54
2018-06-19T17:03:12.456Z,21.64
2018-06-19T17:06:16.898Z,21.96
2018-06-19T17:09:21.308Z,22.03
2018-06-19T17:12:25.692Z,22.43
2018-06-19T17:15:30.018Z,21.70
2018-06-19T17:18:34.341Z,21.05
2018-06-19T17:21:38.715Z,20.59
2018-06-19T17:24:43.166Z,19.58
2018-06-19T17:27:47.528Z,18.99
2018-06-19T17:30:51.901Z,18.72
2018-06-19T17:33:56.525Z,18.40
2018-06-19T17:37:00.890Z,18.17
2018-06-19T17:40:05.414Z,17.78
2018-06-19T17:43:09.752Z,17.63
2018-06-19T17:46:14.126Z,17.51
2018-06-19T17:49:18.494Z,17.36
2018-06-19T17:52:22.960Z,17.36
2018-06-19T17:55:27.340Z,17.22
2018-06-19T17:58:31.724Z,16.94
2018-06-19T18:01:36.057Z,16.92
2018-06-19T18:04:40.369Z,16.85
2018-06-19T18:07:44.717Z,16.81
2018-06-19T18:10:49.134Z,16.68
2018-06-19T18:13:53.492Z,16.60
2018-06-19T18:16:57.827Z,16.47
2018-06-19T18:20:02.208Z,16.45
2018-06-19T18:23:06.530Z,16.45
2018-06-19T18:26:10.886Z,16.40
2018-06-19T18:29:15.221Z,16.35
2018-06-19T18:32:19.594Z,16.34
2018-06-19T18:35:23.871Z,16.28
2018-06-19T18:38:28.215Z,16.17
2018-06-19T18:41:32.520Z,16.15
2018-06-19T18:44:36.908Z,16.03
2018-06-19T18:47:41.335Z,15.95
2018-06-19T18:50:45.651Z,15.84
2018-06-19T18:53:50.105Z,15.79
2018-06-19T18:56:54.463Z,15.67
2018-06-19T18:59:58.981Z,15.61
2018-06-19T19:03:03.300Z,15.56
2018-06-19T19:06:07.713Z,15.55
2018-06-19T19:09:12.822Z,15.52
2018-06-19T19:12:17.466Z,15.47
2018-06-19T19:15:27.286Z,15.49
2018-06-19T19:18:36.889Z,15.48
2018-06-19T19:21:41.225Z,15.43
2018-06-19T19:24:45.522Z,15.44
2018-06-19T19:27:55.017Z,15.38
2018-06-19T19:30:59.580Z,15.26
2018-06-19T19:34:03.943Z,15.23
2018-06-19T19:37:13.428Z,15.10
2018-06-19T19:40:17.785Z,15.05
2018-06-19T19:43:22.221Z,14.96
2018-06-19T19:46:31.751Z,14.87
2018-06-19T19:49:36.121Z,14.85
2018-06-19T19:52:40.497Z,14.79
2018-06-19T19:55:50.145Z,14.78
2018-06-19T19:58:54.451Z,14.73
2018-06-19T20:01:58.860Z,14.66
2018-06-19T20:05:03.144Z,14.60
2018-06-19T20:08:07.497Z,14.51
2018-06-19T20:11:11.865Z,14.47
2018-06-19T20:14:16.161Z,14.46
2018-06-19T20:17:20.465Z,14.38
2018-06-19T20:20:24.832Z,14.34
2018-06-19T20:23:29.216Z,14.29
2018-06-19T20:26:33.562Z,14.21
2018-06-19T20:29:37.906Z,14.14
2018-06-19T20:32:42.199Z,14.06
2018-06-19T20:35:46.481Z,14.04
2018-06-19T20:38:50.835Z,14.00
2018-06-19T20:41:55.256Z,13.96
2018-06-19T20:44:59.924Z,13.92
2018-06-19T20:48:04.212Z,13.86
2018-06-19T20:51:08.831Z,13.82
2018-06-19T20:54:13.161Z,13.77
2018-06-19T20:57:17.565Z,13.69
2018-06-19T21:00:21.857Z,13.65
2018-06-19T21:03:26.424Z,13.63
2018-06-19T21:06:30.733Z,13.64
2018-06-19T21:09:35.180Z,13.63
2018-06-19T21:12:39.512Z,13.68
2018-06-19T21:15:43.753Z,13.72
2018-06-19T21:18:48.397Z,13.68
2018-06-19T21:21:52.749Z,13.66
2018-06-19T21:24:57.145Z,13.59
2018-06-19T21:28:01.441Z,13.57
2018-06-19T21:31:05.867Z,13.52
2018-06-19T21:34:10.139Z,13.43
2018-06-19T21:37:14.693Z,13.38
2018-06-19T21:40:18.960Z,13.30
2018-06-19T21:43:23.383Z,13.24
2018-06-19T21:46:27.720Z,13.21
2018-06-19T21:49:32.019Z,13.19
2018-06-19T21:52:36.297Z,13.20
2018-06-19T21:55:41.070Z,13.24
2018-06-19T21:58:45.740Z,13.21
2018-06-19T22:01:50.289Z,13.29
2018-06-19T22:04:54.636Z,13.41
2018-06-19T22:07:59.013Z,13.53
2018-06-19T22:11:03.440Z,13.61
2018-06-19T22:14:07.889Z,13.66
2018-06-19T22:17:12.384Z,13.70
2018-06-19T22:20:16.802Z,13.80
2018-06-19T22:23:21.093Z,13.87
2018-06-19T22:26:25.419Z,13.91
2018-06-19T22:29:29.670Z,13.93
2018-06-19T22:32:34.105Z,13.92
2018-06-19T22:35:38.625Z,13.91
2018-06-19T22:38:42.971Z,13.92
2018-06-19T22:41:47.349Z,13.92
2018-06-19T22:44:51.735Z,13.92
2018-06-19T22:47:56.310Z,13.91
2018-06-19T22:51:00.932Z,13.93
2018-06-19T22:54:06.331Z,13.94
2018-06-19T22:57:10.767Z,13.93
2018-06-19T23:00:16.228Z,13.94
2018-06-19T23:03:20.636Z,13.93
2018-06-19T23:06:24.944Z,13.95
2018-06-19T23:09:29.361Z,13.99
2018-06-19T23:12:33.658Z,14.02
2018-06-19T23:15:38.030Z,14.03
2018-06-19T23:18:42.416Z,14.00
2018-06-19T23:21:46.743Z,14.03
2018-06-19T23:24:51.078Z,14.08
2018-06-19T23:27:55.480Z,14.05
2018-06-19T23:30:59.816Z,14.04
2018-06-19T23:34:04.132Z,14.03
2018-06-19T23:37:08.493Z,13.98
2018-06-19T23:40:12.829Z,13.96
2018-06-19T23:43:16.899Z,13.97
2018-06-19T23:46:21.303Z,14.05
2018-06-19T23:49:25.682Z,14.07
2018-06-19T23:52:30.504Z,14.04
2018-06-19T23:55:34.787Z,14.02
2018-06-19T23:58:39.201Z,14.01
